Maersk Vallvik — 9V8839 — position and weather

sailwx.info

Track history (hours):
 
Tides and Currents Weather Stations Pressure Air Temp Water Temp Dewpoint Dewpoint Depression Visibility Wind Speed Wind Dir Waves Ship Positions

Maersk Vallvik

Last reported at 2014-Aug-27 10:21 UTC. Time now 2014-Sep-02 21:24 UTC.
Position S 34°29' E 022°16'.

Length 180 m; draft 10.5 m.

Type: Ship. MMSI: 564837000.

Date/timePositionNaut miles runAvg speedWind from/ knotsBaromVisibWave heightAir tempDewpointWater temp
2014-Aug-27 10:21S 34°29' E 022°16'910.7
2014-Aug-27 09:30S 34°30' E 022°05'1110.5
2014-Aug-27 08:26S 34°32' E 021°52'2010.3
2014-Aug-27 06:32S 34°38' E 021°29'11 9.9
2014-Aug-27 05:24S 34°42' E 021°16'97 9.5
2014-Aug-26 19:12S 34°48' E 019°18'9 9.7
2014-Aug-26 18:17S 34°45' E 019°08'9 9.7
2014-Aug-26 17:21S 34°41' E 018°58'8 9.8
2014-Aug-26 16:32S 34°38' E 018°49'10 9.9
2014-Aug-26 15:33S 34°34' E 018°38'11 9.8
2014-Aug-26 14:28S 34°30' E 018°27'19 9.6
2014-Aug-26 12:31S 34°24' E 018°05'9 9.3
2014-Aug-26 11:33S 34°20' E 017°55'  
Track history (hours):
 
Tides and Currents Weather Stations Pressure Air Temp Water Temp Dewpoint Dewpoint Depression Visibility Wind Speed Wind Dir Waves Ship Positions

Maersk Vallvik

Last reported at 2014-Aug-27 10:21 UTC. Time now 2014-Sep-02 21:24 UTC.
Position S 34°29' E 022°16'.

Length 180 m; draft 10.5 m.

Type: Ship. MMSI: 564837000.

Date/timePositionNaut miles runAvg speedWind from/ knotsBaromVisibWave heightAir tempDewpointWater temp
2014-Aug-27 10:21S 34°29' E 022°16'910.7
2014-Aug-27 09:30S 34°30' E 022°05'1110.5
2014-Aug-27 08:26S 34°32' E 021°52'2010.3
2014-Aug-27 06:32S 34°38' E 021°29'11 9.9
2014-Aug-27 05:24S 34°42' E 021°16'97 9.5
2014-Aug-26 19:12S 34°48' E 019°18'9 9.7
2014-Aug-26 18:17S 34°45' E 019°08'9 9.7
2014-Aug-26 17:21S 34°41' E 018°58'8 9.8
2014-Aug-26 16:32S 34°38' E 018°49'10 9.9
2014-Aug-26 15:33S 34°34' E 018°38'11 9.8
2014-Aug-26 14:28S 34°30' E 018°27'19 9.6
2014-Aug-26 12:31S 34°24' E 018°05'9 9.3
2014-Aug-26 11:33S 34°20' E 017°55'  

Dump ship's entire track history